sensor_id;sensor_type;location;lat;lon;timestamp;P1;durP1;ratioP1;P2;durP2;ratioP2
57341;SDS011;43175;51.002;18.316;2023-04-24T00:01:38;13.10;;;7.40;;
57341;SDS011;43175;51.002;18.316;2023-04-24T00:04:05;14.40;;;7.40;;
57341;SDS011;43175;51.002;18.316;2023-04-24T00:06:32;16.50;;;7.40;;
57341;SDS011;43175;51.002;18.316;2023-04-24T00:08:59;15.30;;;7.30;;
57341;SDS011;43175;51.002;18.316;2023-04-24T00:11:26;13.40;;;7.80;;
57341;SDS011;43175;51.002;18.316;2023-04-24T00:13:52;14.60;;;7.70;;
57341;SDS011;43175;51.002;18.316;2023-04-24T00:16:18;14.70;;;7.10;;
57341;SDS011;43175;51.002;18.316;2023-04-24T00:18:43;13.10;;;7.10;;
57341;SDS011;43175;51.002;18.316;2023-04-24T00:21:10;16.20;;;7.40;;
57341;SDS011;43175;51.002;18.316;2023-04-24T00:23:36;14.30;;;7.20;;
57341;SDS011;43175;51.002;18.316;2023-04-24T00:26:02;14.30;;;7.40;;
57341;SDS011;43175;51.002;18.316;2023-04-24T00:28:27;13.50;;;7.30;;
57341;SDS011;43175;51.002;18.316;2023-04-24T00:30:53;14.50;;;7.40;;
57341;SDS011;43175;51.002;18.316;2023-04-24T00:33:19;14.10;;;7.40;;
57341;SDS011;43175;51.002;18.316;2023-04-24T00:35:44;15.00;;;7.00;;
57341;SDS011;43175;51.002;18.316;2023-04-24T00:38:10;14.20;;;6.80;;
57341;SDS011;43175;51.002;18.316;2023-04-24T00:40:35;14.00;;;7.00;;
57341;SDS011;43175;51.002;18.316;2023-04-24T00:43:01;14.50;;;7.10;;
57341;SDS011;43175;51.002;18.316;2023-04-24T00:45:26;14.20;;;7.00;;
57341;SDS011;43175;51.002;18.316;2023-04-24T00:47:52;14.00;;;6.80;;
57341;SDS011;43175;51.002;18.316;2023-04-24T00:50:18;13.80;;;6.50;;
57341;SDS011;43175;51.002;18.316;2023-04-24T00:52:46;13.20;;;7.00;;
57341;SDS011;43175;51.002;18.316;2023-04-24T00:55:12;15.80;;;6.60;;
57341;SDS011;43175;51.002;18.316;2023-04-24T00:57:37;13.90;;;6.90;;
57341;SDS011;43175;51.002;18.316;2023-04-24T01:00:04;12.80;;;6.40;;
57341;SDS011;43175;51.002;18.316;2023-04-24T01:02:31;12.20;;;6.20;;
57341;SDS011;43175;51.002;18.316;2023-04-24T01:05:00;12.20;;;6.30;;
57341;SDS011;43175;51.002;18.316;2023-04-24T01:07:26;12.60;;;6.50;;
57341;SDS011;43175;51.002;18.316;2023-04-24T01:09:52;13.20;;;7.00;;
57341;SDS011;43175;51.002;18.316;2023-04-24T01:12:18;12.60;;;6.70;;
57341;SDS011;43175;51.002;18.316;2023-04-24T01:14:44;13.80;;;6.60;;
57341;SDS011;43175;51.002;18.316;2023-04-24T01:17:10;16.30;;;6.90;;
57341;SDS011;43175;51.002;18.316;2023-04-24T01:19:36;15.10;;;6.80;;
57341;SDS011;43175;51.002;18.316;2023-04-24T01:22:02;16.40;;;7.50;;
57341;SDS011;43175;51.002;18.316;2023-04-24T01:24:28;14.50;;;7.20;;
57341;SDS011;43175;51.002;18.316;2023-04-24T01:26:54;13.30;;;7.10;;
57341;SDS011;43175;51.002;18.316;2023-04-24T01:29:21;15.10;;;7.10;;
57341;SDS011;43175;51.002;18.316;2023-04-24T01:31:46;16.20;;;7.30;;
57341;SDS011;43175;51.002;18.316;2023-04-24T01:34:12;14.70;;;7.90;;
57341;SDS011;43175;51.002;18.316;2023-04-24T01:36:38;16.10;;;8.00;;
57341;SDS011;43175;51.002;18.316;2023-04-24T01:39:04;14.60;;;8.20;;
57341;SDS011;43175;51.002;18.316;2023-04-24T01:41:29;15.70;;;8.50;;
57341;SDS011;43175;51.002;18.316;2023-04-24T01:43:55;17.60;;;8.50;;
57341;SDS011;43175;51.002;18.316;2023-04-24T01:46:23;15.90;;;8.70;;
57341;SDS011;43175;51.002;18.316;2023-04-24T01:48:49;17.40;;;8.70;;
57341;SDS011;43175;51.002;18.316;2023-04-24T01:51:16;18.10;;;9.20;;
57341;SDS011;43175;51.002;18.316;2023-04-24T01:53:42;17.80;;;9.20;;
57341;SDS011;43175;51.002;18.316;2023-04-24T01:56:07;17.20;;;9.40;;
57341;SDS011;43175;51.002;18.316;2023-04-24T01:58:33;17.00;;;9.20;;
57341;SDS011;43175;51.002;18.316;2023-04-24T02:00:59;17.00;;;9.10;;
57341;SDS011;43175;51.002;18.316;2023-04-24T02:03:26;17.20;;;9.60;;
57341;SDS011;43175;51.002;18.316;2023-04-24T02:05:51;16.60;;;9.10;;
57341;SDS011;43175;51.002;18.316;2023-04-24T02:08:17;19.00;;;9.60;;
57341;SDS011;43175;51.002;18.316;2023-04-24T02:10:42;18.50;;;9.30;;
57341;SDS011;43175;51.002;18.316;2023-04-24T02:13:08;18.60;;;9.80;;
57341;SDS011;43175;51.002;18.316;2023-04-24T02:15:33;18.00;;;9.80;;
57341;SDS011;43175;51.002;18.316;2023-04-24T02:17:58;17.00;;;9.30;;
57341;SDS011;43175;51.002;18.316;2023-04-24T02:20:24;17.50;;;9.80;;
57341;SDS011;43175;51.002;18.316;2023-04-24T02:22:50;19.90;;;9.60;;
57341;SDS011;43175;51.002;18.316;2023-04-24T02:25:15;15.60;;;9.40;;
57341;SDS011;43175;51.002;18.316;2023-04-24T02:27:41;17.70;;;8.70;;
57341;SDS011;43175;51.002;18.316;2023-04-24T02:30:06;15.90;;;9.00;;
57341;SDS011;43175;51.002;18.316;2023-04-24T02:32:33;15.50;;;8.80;;
57341;SDS011;43175;51.002;18.316;2023-04-24T02:34:59;15.60;;;9.00;;
57341;SDS011;43175;51.002;18.316;2023-04-24T02:37:24;19.20;;;9.00;;
57341;SDS011;43175;51.002;18.316;2023-04-24T02:39:50;17.60;;;8.90;;
57341;SDS011;43175;51.002;18.316;2023-04-24T02:42:15;18.10;;;9.10;;
57341;SDS011;43175;51.002;18.316;2023-04-24T02:44:40;17.70;;;9.00;;
57341;SDS011;43175;51.002;18.316;2023-04-24T02:47:06;17.70;;;9.40;;
57341;SDS011;43175;51.002;18.316;2023-04-24T02:49:32;16.20;;;9.30;;
57341;SDS011;43175;51.002;18.316;2023-04-24T02:51:58;16.70;;;9.00;;
57341;SDS011;43175;51.002;18.316;2023-04-24T02:54:23;16.50;;;9.20;;
57341;SDS011;43175;51.002;18.316;2023-04-24T02:56:49;17.50;;;9.20;;
57341;SDS011;43175;51.002;18.316;2023-04-24T02:59:15;17.90;;;9.40;;
57341;SDS011;43175;51.002;18.316;2023-04-24T03:01:41;17.50;;;9.50;;
57341;SDS011;43175;51.002;18.316;2023-04-24T03:04:06;17.70;;;9.60;;
57341;SDS011;43175;51.002;18.316;2023-04-24T03:06:32;18.20;;;9.80;;
57341;SDS011;43175;51.002;18.316;2023-04-24T03:08:58;16.30;;;9.30;;
57341;SDS011;43175;51.002;18.316;2023-04-24T03:11:24;16.60;;;9.30;;
57341;SDS011;43175;51.002;18.316;2023-04-24T03:13:51;18.10;;;9.10;;
57341;SDS011;43175;51.002;18.316;2023-04-24T03:16:16;17.00;;;9.30;;
57341;SDS011;43175;51.002;18.316;2023-04-24T03:18:42;15.80;;;9.30;;
57341;SDS011;43175;51.002;18.316;2023-04-24T03:21:07;14.50;;;8.20;;
57341;SDS011;43175;51.002;18.316;2023-04-24T03:23:33;14.80;;;8.50;;
57341;SDS011;43175;51.002;18.316;2023-04-24T03:25:58;15.00;;;8.30;;
57341;SDS011;43175;51.002;18.316;2023-04-24T03:28:23;15.70;;;8.40;;
57341;SDS011;43175;51.002;18.316;2023-04-24T03:30:50;15.40;;;8.60;;
57341;SDS011;43175;51.002;18.316;2023-04-24T03:33:15;14.00;;;8.30;;
57341;SDS011;43175;51.002;18.316;2023-04-24T03:35:41;16.20;;;8.50;;
57341;SDS011;43175;51.002;18.316;2023-04-24T03:38:07;16.10;;;9.20;;
57341;SDS011;43175;51.002;18.316;2023-04-24T03:40:32;17.00;;;8.60;;
57341;SDS011;43175;51.002;18.316;2023-04-24T03:42:58;16.20;;;9.40;;
57341;SDS011;43175;51.002;18.316;2023-04-24T03:45:24;18.20;;;10.00;;
57341;SDS011;43175;51.002;18.316;2023-04-24T03:47:49;18.10;;;9.30;;
57341;SDS011;43175;51.002;18.316;2023-04-24T03:50:15;16.80;;;9.70;;
57341;SDS011;43175;51.002;18.316;2023-04-24T03:52:41;18.20;;;9.60;;
57341;SDS011;43175;51.002;18.316;2023-04-24T03:55:06;15.60;;;9.80;;
57341;SDS011;43175;51.002;18.316;2023-04-24T03:57:32;18.10;;;10.20;;
57341;SDS011;43175;51.002;18.316;2023-04-24T03:59:58;15.60;;;9.60;;
57341;SDS011;43175;51.002;18.316;2023-04-24T04:02:23;16.80;;;10.00;;
57341;SDS011;43175;51.002;18.316;2023-04-24T04:04:49;18.80;;;10.30;;
57341;SDS011;43175;51.002;18.316;2023-04-24T04:07:14;17.60;;;10.30;;
57341;SDS011;43175;51.002;18.316;2023-04-24T04:09:40;16.50;;;10.40;;
57341;SDS011;43175;51.002;18.316;2023-04-24T04:12:06;19.90;;;10.60;;
57341;SDS011;43175;51.002;18.316;2023-04-24T04:14:31;19.20;;;10.90;;
57341;SDS011;43175;51.002;18.316;2023-04-24T04:16:57;18.00;;;10.40;;
57341;SDS011;43175;51.002;18.316;2023-04-24T04:19:22;18.90;;;10.80;;
57341;SDS011;43175;51.002;18.316;2023-04-24T04:21:48;18.70;;;11.90;;
57341;SDS011;43175;51.002;18.316;2023-04-24T04:24:18;21.60;;;12.40;;
57341;SDS011;43175;51.002;18.316;2023-04-24T04:26:46;19.40;;;11.20;;
57341;SDS011;43175;51.002;18.316;2023-04-24T04:29:12;18.40;;;10.90;;
57341;SDS011;43175;51.002;18.316;2023-04-24T04:31:38;21.80;;;11.60;;
57341;SDS011;43175;51.002;18.316;2023-04-24T04:34:04;19.80;;;12.70;;
57341;SDS011;43175;51.002;18.316;2023-04-24T04:36:30;21.60;;;12.20;;
57341;SDS011;43175;51.002;18.316;2023-04-24T04:38:55;18.40;;;10.90;;
57341;SDS011;43175;51.002;18.316;2023-04-24T04:41:21;21.70;;;10.70;;
57341;SDS011;43175;51.002;18.316;2023-04-24T04:43:47;19.60;;;10.30;;
57341;SDS011;43175;51.002;18.316;2023-04-24T04:46:13;20.10;;;9.20;;
57341;SDS011;43175;51.002;18.316;2023-04-24T04:48:38;20.00;;;9.40;;
57341;SDS011;43175;51.002;18.316;2023-04-24T04:51:04;18.10;;;9.60;;
57341;SDS011;43175;51.002;18.316;2023-04-24T04:53:30;18.70;;;10.10;;
57341;SDS011;43175;51.002;18.316;2023-04-24T04:55:56;17.10;;;9.40;;
57341;SDS011;43175;51.002;18.316;2023-04-24T04:58:21;16.70;;;9.20;;
57341;SDS011;43175;51.002;18.316;2023-04-24T05:00:47;16.50;;;9.10;;
57341;SDS011;43175;51.002;18.316;2023-04-24T05:03:13;16.70;;;9.80;;
57341;SDS011;43175;51.002;18.316;2023-04-24T05:05:39;16.90;;;10.10;;
57341;SDS011;43175;51.002;18.316;2023-04-24T05:08:08;18.70;;;10.00;;
57341;SDS011;43175;51.002;18.316;2023-04-24T05:10:34;20.40;;;11.10;;
57341;SDS011;43175;51.002;18.316;2023-04-24T05:12:59;19.40;;;10.90;;
57341;SDS011;43175;51.002;18.316;2023-04-24T05:15:26;21.70;;;11.00;;
57341;SDS011;43175;51.002;18.316;2023-04-24T05:17:51;17.60;;;10.50;;
57341;SDS011;43175;51.002;18.316;2023-04-24T05:20:17;18.40;;;9.80;;
57341;SDS011;43175;51.002;18.316;2023-04-24T05:22:43;16.80;;;9.60;;
57341;SDS011;43175;51.002;18.316;2023-04-24T05:25:08;20.00;;;10.10;;
57341;SDS011;43175;51.002;18.316;2023-04-24T05:27:34;16.00;;;9.30;;
57341;SDS011;43175;51.002;18.316;2023-04-24T05:29:59;17.90;;;9.40;;
57341;SDS011;43175;51.002;18.316;2023-04-24T05:32:25;17.40;;;10.00;;
57341;SDS011;43175;51.002;18.316;2023-04-24T05:34:52;17.60;;;10.00;;
57341;SDS011;43175;51.002;18.316;2023-04-24T05:37:17;17.60;;;10.90;;
57341;SDS011;43175;51.002;18.316;2023-04-24T05:39:43;19.40;;;11.50;;
57341;SDS011;43175;51.002;18.316;2023-04-24T05:42:09;18.80;;;11.00;;
57341;SDS011;43175;51.002;18.316;2023-04-24T05:44:34;18.90;;;9.40;;
57341;SDS011;43175;51.002;18.316;2023-04-24T05:47:00;18.30;;;9.70;;
57341;SDS011;43175;51.002;18.316;2023-04-24T05:49:25;16.50;;;9.00;;
57341;SDS011;43175;51.002;18.316;2023-04-24T05:51:51;19.70;;;10.20;;
57341;SDS011;43175;51.002;18.316;2023-04-24T05:54:17;19.50;;;11.00;;
57341;SDS011;43175;51.002;18.316;2023-04-24T05:56:42;19.10;;;11.20;;
57341;SDS011;43175;51.002;18.316;2023-04-24T05:59:08;17.60;;;10.60;;
57341;SDS011;43175;51.002;18.316;2023-04-24T06:01:34;18.00;;;9.70;;
57341;SDS011;43175;51.002;18.316;2023-04-24T06:03:59;16.20;;;9.60;;
57341;SDS011;43175;51.002;18.316;2023-04-24T06:06:25;18.20;;;9.80;;
57341;SDS011;43175;51.002;18.316;2023-04-24T06:08:52;16.70;;;9.60;;
57341;SDS011;43175;51.002;18.316;2023-04-24T06:11:18;15.60;;;8.90;;
57341;SDS011;43175;51.002;18.316;2023-04-24T06:13:43;16.40;;;8.80;;
57341;SDS011;43175;51.002;18.316;2023-04-24T06:16:09;16.60;;;9.60;;
57341;SDS011;43175;51.002;18.316;2023-04-24T06:18:35;17.10;;;9.00;;
57341;SDS011;43175;51.002;18.316;2023-04-24T06:21:00;16.60;;;10.00;;
57341;SDS011;43175;51.002;18.316;2023-04-24T06:23:26;17.60;;;9.20;;
57341;SDS011;43175;51.002;18.316;2023-04-24T06:25:51;14.90;;;8.80;;
57341;SDS011;43175;51.002;18.316;2023-04-24T06:28:16;15.00;;;9.00;;
57341;SDS011;43175;51.002;18.316;2023-04-24T06:30:42;18.30;;;8.80;;
57341;SDS011;43175;51.002;18.316;2023-04-24T06:33:08;16.30;;;9.30;;
57341;SDS011;43175;51.002;18.316;2023-04-24T06:35:34;18.00;;;9.60;;
57341;SDS011;43175;51.002;18.316;2023-04-24T06:37:59;16.70;;;9.50;;
57341;SDS011;43175;51.002;18.316;2023-04-24T06:40:25;18.30;;;9.40;;
57341;SDS011;43175;51.002;18.316;2023-04-24T06:42:51;18.70;;;9.30;;
57341;SDS011;43175;51.002;18.316;2023-04-24T06:45:16;16.30;;;9.50;;
57341;SDS011;43175;51.002;18.316;2023-04-24T06:47:42;17.90;;;9.60;;
57341;SDS011;43175;51.002;18.316;2023-04-24T06:50:07;18.00;;;9.70;;
57341;SDS011;43175;51.002;18.316;2023-04-24T06:52:33;18.40;;;9.60;;
57341;SDS011;43175;51.002;18.316;2023-04-24T06:55:02;17.70;;;9.60;;
57341;SDS011;43175;51.002;18.316;2023-04-24T06:57:28;18.20;;;10.00;;
57341;SDS011;43175;51.002;18.316;2023-04-24T06:59:54;15.30;;;8.90;;
57341;SDS011;43175;51.002;18.316;2023-04-24T07:02:20;15.10;;;8.40;;
57341;SDS011;43175;51.002;18.316;2023-04-24T07:04:46;15.50;;;8.40;;
57341;SDS011;43175;51.002;18.316;2023-04-24T07:07:13;14.30;;;7.70;;
57341;SDS011;43175;51.002;18.316;2023-04-24T07:09:39;14.60;;;7.60;;
57341;SDS011;43175;51.002;18.316;2023-04-24T07:12:09;14.60;;;7.00;;
57341;SDS011;43175;51.002;18.316;2023-04-24T07:14:38;13.60;;;7.20;;
57341;SDS011;43175;51.002;18.316;2023-04-24T07:17:05;14.20;;;7.90;;
57341;SDS011;43175;51.002;18.316;2023-04-24T07:19:33;13.70;;;7.20;;
57341;SDS011;43175;51.002;18.316;2023-04-24T07:21:59;14.70;;;7.20;;
57341;SDS011;43175;51.002;18.316;2023-04-24T07:24:25;14.00;;;7.10;;
57341;SDS011;43175;51.002;18.316;2023-04-24T07:26:51;14.00;;;6.90;;
57341;SDS011;43175;51.002;18.316;2023-04-24T07:29:17;15.10;;;6.80;;
57341;SDS011;43175;51.002;18.316;2023-04-24T07:31:43;15.50;;;7.20;;
57341;SDS011;43175;51.002;18.316;2023-04-24T07:34:09;13.70;;;7.00;;
57341;SDS011;43175;51.002;18.316;2023-04-24T07:36:34;13.50;;;6.70;;
57341;SDS011;43175;51.002;18.316;2023-04-24T07:39:00;12.30;;;6.60;;
57341;SDS011;43175;51.002;18.316;2023-04-24T07:41:26;13.10;;;6.80;;
57341;SDS011;43175;51.002;18.316;2023-04-24T07:43:53;14.10;;;6.80;;
57341;SDS011;43175;51.002;18.316;2023-04-24T07:46:19;12.30;;;6.40;;
57341;SDS011;43175;51.002;18.316;2023-04-24T07:48:45;16.10;;;6.90;;
57341;SDS011;43175;51.002;18.316;2023-04-24T07:51:13;12.60;;;6.60;;
57341;SDS011;43175;51.002;18.316;2023-04-24T07:53:39;12.70;;;6.70;;
57341;SDS011;43175;51.002;18.316;2023-04-24T07:56:05;12.20;;;6.50;;
57341;SDS011;43175;51.002;18.316;2023-04-24T07:58:31;11.70;;;6.20;;
57341;SDS011;43175;51.002;18.316;2023-04-24T08:00:56;14.00;;;6.50;;
57341;SDS011;43175;51.002;18.316;2023-04-24T08:03:22;11.90;;;6.50;;
57341;SDS011;43175;51.002;18.316;2023-04-24T08:05:48;13.00;;;6.70;;
57341;SDS011;43175;51.002;18.316;2023-04-24T08:08:13;13.40;;;6.30;;
57341;SDS011;43175;51.002;18.316;2023-04-24T08:10:39;12.60;;;6.20;;
57341;SDS011;43175;51.002;18.316;2023-04-24T08:13:05;12.70;;;6.30;;
57341;SDS011;43175;51.002;18.316;2023-04-24T08:15:31;13.20;;;6.30;;
57341;SDS011;43175;51.002;18.316;2023-04-24T08:17:56;11.30;;;5.80;;
57341;SDS011;43175;51.002;18.316;2023-04-24T08:20:22;11.90;;;5.90;;
57341;SDS011;43175;51.002;18.316;2023-04-24T08:22:48;11.00;;;5.70;;
57341;SDS011;43175;51.002;18.316;2023-04-24T08:25:14;13.00;;;6.20;;
57341;SDS011;43175;51.002;18.316;2023-04-24T08:27:39;15.10;;;6.00;;
57341;SDS011;43175;51.002;18.316;2023-04-24T08:30:05;12.60;;;6.10;;
57341;SDS011;43175;51.002;18.316;2023-04-24T08:32:31;11.80;;;5.90;;
57341;SDS011;43175;51.002;18.316;2023-04-24T08:34:58;12.40;;;5.90;;
57341;SDS011;43175;51.002;18.316;2023-04-24T08:37:25;11.90;;;6.10;;
57341;SDS011;43175;51.002;18.316;2023-04-24T08:39:51;12.30;;;5.80;;
57341;SDS011;43175;51.002;18.316;2023-04-24T08:42:17;12.70;;;6.10;;
57341;SDS011;43175;51.002;18.316;2023-04-24T08:44:43;11.90;;;6.20;;
57341;SDS011;43175;51.002;18.316;2023-04-24T08:47:10;12.20;;;5.90;;
57341;SDS011;43175;51.002;18.316;2023-04-24T08:49:36;11.50;;;6.20;;
57341;SDS011;43175;51.002;18.316;2023-04-24T08:52:03;11.70;;;6.00;;
57341;SDS011;43175;51.002;18.316;2023-04-24T08:54:29;11.60;;;5.50;;
57341;SDS011;43175;51.002;18.316;2023-04-24T08:56:57;11.50;;;5.90;;
57341;SDS011;43175;51.002;18.316;2023-04-24T09:01:53;13.20;;;6.10;;
57341;SDS011;43175;51.002;18.316;2023-04-24T09:04:20;12.60;;;6.00;;
57341;SDS011;43175;51.002;18.316;2023-04-24T09:06:48;11.80;;;5.60;;
57341;SDS011;43175;51.002;18.316;2023-04-24T09:09:14;11.90;;;5.80;;
57341;SDS011;43175;51.002;18.316;2023-04-24T09:11:44;11.00;;;5.60;;
57341;SDS011;43175;51.002;18.316;2023-04-24T09:14:10;12.00;;;6.20;;
57341;SDS011;43175;51.002;18.316;2023-04-24T09:16:36;11.70;;;5.70;;
57341;SDS011;43175;51.002;18.316;2023-04-24T09:19:01;11.40;;;5.70;;
57341;SDS011;43175;51.002;18.316;2023-04-24T09:21:31;11.70;;;5.80;;
57341;SDS011;43175;51.002;18.316;2023-04-24T09:23:59;13.90;;;5.80;;
57341;SDS011;43175;51.002;18.316;2023-04-24T09:26:28;12.30;;;5.40;;
57341;SDS011;43175;51.002;18.316;2023-04-24T09:28:56;11.00;;;5.50;;
57341;SDS011;43175;51.002;18.316;2023-04-24T09:31:22;12.00;;;5.70;;
57341;SDS011;43175;51.002;18.316;2023-04-24T09:33:58;11.70;;;5.80;;
57341;SDS011;43175;51.002;18.316;2023-04-24T09:36:37;11.60;;;5.60;;
57341;SDS011;43175;51.002;18.316;2023-04-24T09:44:11;11.60;;;5.70;;
57341;SDS011;43175;51.002;18.316;2023-04-24T09:46:41;12.50;;;6.10;;
57341;SDS011;43175;51.002;18.316;2023-04-24T09:49:16;12.30;;;6.20;;
57341;SDS011;43175;51.002;18.316;2023-04-24T09:51:48;14.20;;;6.50;;
57341;SDS011;43175;51.002;18.316;2023-04-24T09:54:14;12.00;;;6.20;;
57341;SDS011;43175;51.002;18.316;2023-04-24T09:56:46;13.10;;;6.30;;
57341;SDS011;43175;51.002;18.316;2023-04-24T09:59:19;12.30;;;5.80;;
57341;SDS011;43175;51.002;18.316;2023-04-24T10:01:44;13.20;;;5.90;;
57341;SDS011;43175;51.002;18.316;2023-04-24T10:04:17;12.90;;;6.60;;
57341;SDS011;43175;51.002;18.316;2023-04-24T10:06:44;14.90;;;6.30;;
57341;SDS011;43175;51.002;18.316;2023-04-24T10:09:09;13.20;;;6.10;;
57341;SDS011;43175;51.002;18.316;2023-04-24T10:11:37;15.60;;;6.40;;
57341;SDS011;43175;51.002;18.316;2023-04-24T10:14:07;12.00;;;6.20;;
57341;SDS011;43175;51.002;18.316;2023-04-24T10:16:36;12.30;;;6.20;;
57341;SDS011;43175;51.002;18.316;2023-04-24T10:19:02;12.80;;;6.10;;
57341;SDS011;43175;51.002;18.316;2023-04-24T10:21:28;14.30;;;6.20;;
57341;SDS011;43175;51.002;18.316;2023-04-24T10:23:54;11.90;;;6.40;;
57341;SDS011;43175;51.002;18.316;2023-04-24T10:26:19;12.60;;;6.40;;
57341;SDS011;43175;51.002;18.316;2023-04-24T10:28:45;12.20;;;5.90;;
57341;SDS011;43175;51.002;18.316;2023-04-24T10:31:12;13.60;;;6.70;;
57341;SDS011;43175;51.002;18.316;2023-04-24T10:33:39;12.00;;;6.50;;
57341;SDS011;43175;51.002;18.316;2023-04-24T10:36:07;12.20;;;6.20;;
57341;SDS011;43175;51.002;18.316;2023-04-24T10:38:33;12.80;;;6.50;;
57341;SDS011;43175;51.002;18.316;2023-04-24T10:41:08;13.20;;;6.50;;
57341;SDS011;43175;51.002;18.316;2023-04-24T10:43:35;13.80;;;6.50;;
57341;SDS011;43175;51.002;18.316;2023-04-24T10:46:01;11.50;;;6.00;;
57341;SDS011;43175;51.002;18.316;2023-04-24T10:48:29;11.70;;;6.00;;
57341;SDS011;43175;51.002;18.316;2023-04-24T10:50:54;12.60;;;6.60;;
57341;SDS011;43175;51.002;18.316;2023-04-24T10:53:21;12.10;;;6.20;;
57341;SDS011;43175;51.002;18.316;2023-04-24T10:55:52;13.10;;;6.30;;
57341;SDS011;43175;51.002;18.316;2023-04-24T10:58:24;13.40;;;6.20;;
57341;SDS011;43175;51.002;18.316;2023-04-24T11:00:57;12.20;;;6.30;;
57341;SDS011;43175;51.002;18.316;2023-04-24T11:03:26;12.40;;;6.00;;
57341;SDS011;43175;51.002;18.316;2023-04-24T11:05:55;13.40;;;6.20;;
57341;SDS011;43175;51.002;18.316;2023-04-24T11:08:23;11.10;;;5.90;;
57341;SDS011;43175;51.002;18.316;2023-04-24T11:11:11;11.00;;;5.90;;
57341;SDS011;43175;51.002;18.316;2023-04-24T11:14:10;13.20;;;6.60;;
57341;SDS011;43175;51.002;18.316;2023-04-24T11:16:32;10.70;;;5.80;;
57341;SDS011;43175;51.002;18.316;2023-04-24T11:19:09;12.50;;;6.40;;
57341;SDS011;43175;51.002;18.316;2023-04-24T11:26:57;11.30;;;6.00;;
57341;SDS011;43175;51.002;18.316;2023-04-24T11:29:44;12.30;;;6.40;;
57341;SDS011;43175;51.002;18.316;2023-04-24T11:32:16;11.90;;;6.10;;
57341;SDS011;43175;51.002;18.316;2023-04-24T11:34:49;12.30;;;6.60;;
57341;SDS011;43175;51.002;18.316;2023-04-24T11:37:16;11.60;;;6.50;;
57341;SDS011;43175;51.002;18.316;2023-04-24T11:39:42;13.10;;;6.40;;
57341;SDS011;43175;51.002;18.316;2023-04-24T11:42:08;12.00;;;6.80;;
57341;SDS011;43175;51.002;18.316;2023-04-24T11:44:34;12.00;;;6.20;;
57341;SDS011;43175;51.002;18.316;2023-04-24T11:47:05;11.80;;;6.50;;
57341;SDS011;43175;51.002;18.316;2023-04-24T11:49:32;12.20;;;6.30;;
57341;SDS011;43175;51.002;18.316;2023-04-24T11:51:57;11.60;;;6.10;;
57341;SDS011;43175;51.002;18.316;2023-04-24T11:54:27;15.90;;;6.40;;
57341;SDS011;43175;51.002;18.316;2023-04-24T11:56:53;11.50;;;6.10;;
57341;SDS011;43175;51.002;18.316;2023-04-24T11:59:19;11.80;;;5.70;;
57341;SDS011;43175;51.002;18.316;2023-04-24T12:01:45;14.00;;;6.10;;
57341;SDS011;43175;51.002;18.316;2023-04-24T12:04:11;12.30;;;5.80;;
57341;SDS011;43175;51.002;18.316;2023-04-24T12:06:37;13.90;;;5.70;;
57341;SDS011;43175;51.002;18.316;2023-04-24T12:09:02;12.00;;;5.90;;
57341;SDS011;43175;51.002;18.316;2023-04-24T12:11:28;12.30;;;5.40;;
57341;SDS011;43175;51.002;18.316;2023-04-24T12:13:53;12.40;;;5.90;;
57341;SDS011;43175;51.002;18.316;2023-04-24T12:16:19;11.80;;;5.70;;
57341;SDS011;43175;51.002;18.316;2023-04-24T12:18:45;11.40;;;6.00;;
57341;SDS011;43175;51.002;18.316;2023-04-24T12:21:17;11.20;;;6.00;;
57341;SDS011;43175;51.002;18.316;2023-04-24T12:23:46;13.50;;;6.30;;
57341;SDS011;43175;51.002;18.316;2023-04-24T12:26:21;12.70;;;6.50;;
57341;SDS011;43175;51.002;18.316;2023-04-24T12:28:48;13.50;;;6.50;;
57341;SDS011;43175;51.002;18.316;2023-04-24T12:31:15;12.40;;;6.60;;
57341;SDS011;43175;51.002;18.316;2023-04-24T12:33:41;11.60;;;6.20;;
57341;SDS011;43175;51.002;18.316;2023-04-24T12:36:11;13.80;;;6.50;;
57341;SDS011;43175;51.002;18.316;2023-04-24T12:38:38;12.90;;;6.40;;
57341;SDS011;43175;51.002;18.316;2023-04-24T12:41:07;12.50;;;6.50;;
57341;SDS011;43175;51.002;18.316;2023-04-24T12:43:35;12.20;;;6.80;;
57341;SDS011;43175;51.002;18.316;2023-04-24T12:46:02;12.10;;;6.50;;
57341;SDS011;43175;51.002;18.316;2023-04-24T12:48:28;12.90;;;6.50;;
57341;SDS011;43175;51.002;18.316;2023-04-24T12:50:54;11.60;;;6.00;;
57341;SDS011;43175;51.002;18.316;2023-04-24T12:53:21;11.30;;;6.00;;
57341;SDS011;43175;51.002;18.316;2023-04-24T12:55:47;12.40;;;6.10;;
57341;SDS011;43175;51.002;18.316;2023-04-24T12:58:18;11.80;;;6.10;;
57341;SDS011;43175;51.002;18.316;2023-04-24T13:00:45;13.70;;;6.10;;
57341;SDS011;43175;51.002;18.316;2023-04-24T13:03:11;12.30;;;6.30;;
57341;SDS011;43175;51.002;18.316;2023-04-24T13:05:37;12.80;;;6.10;;
57341;SDS011;43175;51.002;18.316;2023-04-24T13:08:02;14.20;;;6.20;;
57341;SDS011;43175;51.002;18.316;2023-04-24T13:10:28;13.10;;;6.00;;
57341;SDS011;43175;51.002;18.316;2023-04-24T13:12:54;11.50;;;5.80;;
57341;SDS011;43175;51.002;18.316;2023-04-24T13:15:19;11.80;;;5.40;;
57341;SDS011;43175;51.002;18.316;2023-04-24T13:17:45;10.40;;;5.50;;
57341;SDS011;43175;51.002;18.316;2023-04-24T13:20:10;11.20;;;5.70;;
57341;SDS011;43175;51.002;18.316;2023-04-24T13:22:36;11.50;;;5.60;;
57341;SDS011;43175;51.002;18.316;2023-04-24T13:25:02;11.20;;;6.10;;
57341;SDS011;43175;51.002;18.316;2023-04-24T13:27:28;12.40;;;6.30;;
57341;SDS011;43175;51.002;18.316;2023-04-24T13:29:53;12.00;;;6.20;;
57341;SDS011;43175;51.002;18.316;2023-04-24T13:32:19;10.70;;;5.70;;
57341;SDS011;43175;51.002;18.316;2023-04-24T13:34:44;12.30;;;6.30;;
57341;SDS011;43175;51.002;18.316;2023-04-24T13:37:10;11.40;;;5.90;;
57341;SDS011;43175;51.002;18.316;2023-04-24T13:39:35;11.40;;;6.40;;
57341;SDS011;43175;51.002;18.316;2023-04-24T13:42:01;11.50;;;6.30;;
57341;SDS011;43175;51.002;18.316;2023-04-24T13:44:28;11.80;;;6.50;;
57341;SDS011;43175;51.002;18.316;2023-04-24T13:46:54;12.90;;;6.50;;
57341;SDS011;43175;51.002;18.316;2023-04-24T13:49:23;11.90;;;6.70;;
57341;SDS011;43175;51.002;18.316;2023-04-24T13:51:52;13.70;;;6.40;;
57341;SDS011;43175;51.002;18.316;2023-04-24T13:54:19;13.20;;;7.20;;
57341;SDS011;43175;51.002;18.316;2023-04-24T13:56:44;13.00;;;6.80;;
57341;SDS011;43175;51.002;18.316;2023-04-24T13:59:11;13.70;;;7.10;;
57341;SDS011;43175;51.002;18.316;2023-04-24T14:01:37;18.60;;;7.20;;
57341;SDS011;43175;51.002;18.316;2023-04-24T14:04:03;12.40;;;7.10;;
57341;SDS011;43175;51.002;18.316;2023-04-24T14:06:29;13.10;;;7.20;;
57341;SDS011;43175;51.002;18.316;2023-04-24T14:08:54;12.60;;;7.60;;
57341;SDS011;43175;51.002;18.316;2023-04-24T14:11:20;15.30;;;7.50;;
57341;SDS011;43175;51.002;18.316;2023-04-24T14:13:46;15.20;;;8.00;;
57341;SDS011;43175;51.002;18.316;2023-04-24T14:16:11;13.30;;;7.90;;
57341;SDS011;43175;51.002;18.316;2023-04-24T14:18:37;13.60;;;8.30;;
57341;SDS011;43175;51.002;18.316;2023-04-24T14:21:03;13.00;;;8.10;;
57341;SDS011;43175;51.002;18.316;2023-04-24T14:23:29;14.50;;;8.00;;
57341;SDS011;43175;51.002;18.316;2023-04-24T14:25:54;13.70;;;7.50;;
57341;SDS011;43175;51.002;18.316;2023-04-24T14:28:20;15.50;;;7.80;;
57341;SDS011;43175;51.002;18.316;2023-04-24T14:30:49;15.00;;;8.10;;